Time;durP1;ratioP1;P1;durP2;ratioP2;P2;SDS_P1;SDS_P2;PMS_P1;PMS_P2;Temp;Humidity;BMP_temperature;BMP_pressure;BME280_temperature;BME280_humidity;BME280_pressure;Samples;Min_cycle;Max_cycle;Signal;HPM_P1;HPM_P2
2022/05/21 00:01:02;;;;;;;5.95;3.28;;;19.80;99.90;;;;;;5054637;28;20232;-62
2022/05/21 00:03:29;;;;;;;6.03;3.75;;;19.70;99.90;;;;;;5054886;28;20271;-62
2022/05/21 00:05:55;;;;;;;7.32;3.50;;;19.60;99.90;;;;;;5054439;28;20213;-62
2022/05/21 00:08:24;;;;;;;6.10;3.50;;;19.60;99.90;;;;;;5054558;28;20213;-61
2022/05/21 00:10:51;;;;;;;6.63;3.63;;;19.50;99.90;;;;;;5054606;28;20233;-62
2022/05/21 00:13:18;;;;;;;6.32;3.45;;;19.50;99.90;;;;;;5055140;28;20198;-62
2022/05/21 00:15:45;;;;;;;5.55;3.80;;;19.50;99.90;;;;;;5054704;28;20218;-62
2022/05/21 00:18:11;;;;;;;5.30;2.95;;;19.60;99.90;;;;;;5055011;28;20661;-62
2022/05/21 00:20:50;;;;;;;4.50;3.10;;;19.40;99.90;;;;;;5054068;28;20252;-60
2022/05/21 00:23:21;;;;;;;4.95;2.95;;;19.40;99.90;;;;;;5054809;28;20233;-61
2022/05/21 00:25:51;;;;;;;4.50;3.40;;;19.40;99.90;;;;;;5054624;28;20330;-61
2022/05/21 00:28:18;;;;;;;5.57;3.08;;;19.50;99.90;;;;;;5054343;28;20263;-61
2022/05/21 00:30:45;;;;;;;5.60;3.00;;;19.60;99.90;;;;;;5054072;28;20743;-61
2022/05/21 00:33:13;;;;;;;5.25;3.28;;;19.60;99.90;;;;;;5054305;28;20241;-61
2022/05/21 00:35:39;;;;;;;3.05;2.72;;;19.60;99.90;;;;;;5054798;28;20256;-61
2022/05/21 00:38:07;;;;;;;5.07;2.88;;;19.60;99.90;;;;;;5054571;28;20263;-61
2022/05/21 00:40:34;;;;;;;4.63;2.72;;;19.60;99.90;;;;;;5054633;28;20607;-61
2022/05/21 00:43:02;;;;;;;3.25;2.63;;;19.60;99.90;;;;;;5055956;28;20221;-62
2022/05/21 00:45:30;;;;;;;3.72;2.50;;;19.40;99.90;;;;;;5054129;28;20213;-62
2022/05/21 00:47:57;;;;;;;3.90;2.72;;;19.40;99.90;;;;;;5053970;28;20210;-62
2022/05/21 00:50:28;;;;;;;3.53;2.83;;;19.40;99.90;;;;;;5053542;28;20198;-62
2022/05/21 00:52:57;;;;;;;4.40;2.65;;;19.40;99.90;;;;;;5054100;28;20205;-62
2022/05/21 00:55:27;;;;;;;3.40;2.53;;;19.30;99.90;;;;;;5053695;28;20212;-62
2022/05/21 01:00:42;;;;;;;5.30;2.60;;;19.10;99.90;;;;;;5052662;28;20226;-62
2022/05/21 01:03:10;;;;;;;5.53;2.60;;;19.10;99.90;;;;;;5054515;28;20279;-61
2022/05/21 01:05:38;;;;;;;5.50;2.63;;;18.90;99.90;;;;;;5054014;28;20209;-61
2022/05/21 01:08:06;;;;;;;4.97;3.97;;;19.00;99.90;;;;;;5054211;28;20301;-61
2022/05/21 01:10:37;;;;;;;4.13;3.72;;;18.90;99.90;;;;;;5053393;28;20280;-61
2022/05/21 01:13:08;;;;;;;6.07;2.95;;;18.90;99.90;;;;;;5053463;28;20206;-61
2022/05/21 01:15:44;;;;;;;3.78;2.97;;;18.80;99.90;;;;;;5053736;28;20214;-61
2022/05/21 01:18:11;;;;;;;4.82;2.80;;;18.70;99.90;;;;;;5053937;28;20209;-61
2022/05/21 01:20:43;;;;;;;2.92;2.53;;;18.60;99.90;;;;;;5053316;28;20226;-61
2022/05/21 01:23:11;;;;;;;4.65;2.85;;;18.60;99.90;;;;;;5053516;28;20231;-62
2022/05/21 01:25:40;;;;;;;5.35;2.65;;;18.60;99.90;;;;;;5053826;28;20206;-61
2022/05/21 01:28:09;;;;;;;5.68;3.15;;;18.50;99.90;;;;;;5053818;28;20209;-61
2022/05/21 01:30:39;;;;;;;5.38;3.00;;;18.40;99.90;;;;;;5053108;28;20668;-61
2022/05/21 01:33:09;;;;;;;4.38;3.17;;;18.30;99.90;;;;;;5053037;28;20212;-62
2022/05/21 01:35:36;;;;;;;4.28;3.40;;;18.20;99.90;;;;;;5053174;28;20209;-61
2022/05/21 01:38:04;;;;;;;5.63;2.92;;;18.30;99.90;;;;;;5053003;28;20669;-61
2022/05/21 01:40:33;;;;;;;5.03;3.40;;;18.30;99.90;;;;;;5052933;28;20230;-61
2022/05/21 01:45:44;;;;;;;5.03;3.35;;;18.50;99.90;;;;;;5053540;28;20201;-62
2022/05/21 01:48:11;;;;;;;9.93;3.40;;;18.70;99.90;;;;;;5053609;28;20205;-61
2022/05/21 01:50:38;;;;;;;6.30;3.20;;;18.80;99.90;;;;;;5053119;28;20226;-61
2022/05/21 01:53:05;;;;;;;4.50;2.80;;;18.80;99.90;;;;;;5053270;28;20581;-61
2022/05/21 01:55:33;;;;;;;5.13;2.90;;;18.90;99.90;;;;;;5052934;28;20670;-61
2022/05/21 01:58:00;;;;;;;5.07;2.70;;;19.00;99.90;;;;;;5052838;28;20202;-61
2022/05/21 02:00:27;;;;;;;4.40;2.97;;;19.10;99.90;;;;;;5052332;28;20202;-63
2022/05/21 02:02:54;;;;;;;3.10;2.70;;;19.10;99.90;;;;;;5052443;28;20320;-61
2022/05/21 02:05:20;;;;;;;3.60;2.58;;;19.00;99.90;;;;;;5052796;28;20591;-61
2022/05/21 02:07:47;;;;;;;3.03;2.63;;;19.00;99.90;;;;;;5052498;28;20209;-61
2022/05/21 02:10:14;;;;;;;3.38;2.20;;;19.00;99.90;;;;;;5052173;28;20205;-61
2022/05/21 02:12:42;;;;;;;6.35;2.50;;;18.90;99.90;;;;;;5052510;28;20206;-61
2022/05/21 02:15:10;;;;;;;2.90;2.45;;;18.90;99.90;;;;;;5052869;28;20292;-62
2022/05/21 02:17:37;;;;;;;3.20;2.42;;;18.90;99.90;;;;;;5052886;28;20260;-62
2022/05/21 02:20:04;;;;;;;4.05;2.60;;;18.80;99.90;;;;;;5052374;28;20670;-62
2022/05/21 02:22:31;;;;;;;3.42;2.47;;;18.70;99.90;;;;;;5052167;28;20237;-62
2022/05/21 02:24:58;;;;;;;4.07;2.80;;;18.80;99.90;;;;;;5052266;28;20644;-61
2022/05/21 02:27:25;;;;;;;4.95;2.83;;;18.70;99.90;;;;;;5052657;28;20296;-61
2022/05/21 02:29:53;;;;;;;3.08;2.67;;;18.70;99.90;;;;;;5051872;28;20216;-61
2022/05/21 02:32:20;;;;;;;3.20;2.60;;;18.60;99.90;;;;;;5052356;28;20265;-61
2022/05/21 02:34:46;;;;;;;5.00;2.90;;;18.60;99.90;;;;;;5052309;28;20218;-62
2022/05/21 02:40:04;;;;;;;3.92;2.70;;;18.20;99.90;;;;;;5013341;28;20220;-62
2022/05/21 02:42:47;;;;;;;2.97;2.58;;;18.00;99.90;;;;;;5052132;28;20262;-62
2022/05/21 02:45:17;;;;;;;5.13;3.25;;;17.90;99.90;;;;;;5052171;28;20308;-61
2022/05/21 02:47:44;;;;;;;3.35;3.05;;;17.80;99.90;;;;;;5052297;28;20206;-62
2022/05/21 02:50:13;;;;;;;4.03;2.83;;;17.80;99.90;;;;;;5051769;28;20216;-64
2022/05/21 02:52:40;;;;;;;5.03;3.00;;;17.70;99.90;;;;;;5051831;28;20585;-61
2022/05/21 02:55:08;;;;;;;3.58;2.95;;;17.60;99.90;;;;;;5052165;28;20201;-62
2022/05/21 02:57:35;;;;;;;4.18;3.10;;;17.50;99.90;;;;;;5051930;28;20209;-61
2022/05/21 03:00:04;;;;;;;3.88;3.10;;;17.40;99.90;;;;;;5051617;28;20613;-61
2022/05/21 03:02:33;;;;;;;3.20;2.88;;;17.30;99.90;;;;;;5051993;28;20278;-62
2022/05/21 03:04:59;;;;;;;4.93;3.10;;;17.20;99.90;;;;;;5051503;28;20262;-62
2022/05/21 03:07:26;;;;;;;5.20;2.63;;;17.10;99.90;;;;;;5051995;28;20210;-61
2022/05/21 03:12:45;;;;;;;3.30;3.00;;;16.90;99.90;;;;;;5026350;28;20351;-61
2022/05/21 03:15:12;;;;;;;4.10;2.80;;;16.80;99.90;;;;;;5051213;28;20204;-61
2022/05/21 03:17:40;;;;;;;3.55;2.92;;;16.70;99.90;;;;;;5051097;28;20564;-61
2022/05/21 03:20:08;;;;;;;4.18;3.13;;;16.60;99.90;;;;;;5051482;28;20213;-61
2022/05/21 03:22:34;;;;;;;4.33;3.07;;;16.50;99.90;;;;;;5051611;28;20256;-66
2022/05/21 03:25:01;;;;;;;4.00;3.00;;;16.50;99.90;;;;;;5051409;28;20236;-61
2022/05/21 03:27:28;;;;;;;3.80;3.00;;;16.30;99.90;;;;;;5052332;28;20228;-61
2022/05/21 03:29:54;;;;;;;4.30;3.43;;;16.20;99.90;;;;;;5054451;28;20216;-61
2022/05/21 03:32:21;;;;;;;3.33;2.80;;;16.20;99.90;;;;;;5054070;28;20226;-61
2022/05/21 03:34:49;;;;;;;4.63;2.90;;;16.20;99.90;;;;;;5054660;28;20209;-61
2022/05/21 03:37:16;;;;;;;8.10;3.60;;;16.10;99.90;;;;;;5054380;28;20689;-62
2022/05/21 03:39:42;;;;;;;4.40;2.80;;;16.00;99.90;;;;;;5055388;28;20205;-61
2022/05/21 03:42:10;;;;;;;4.53;3.20;;;16.00;99.90;;;;;;5055865;28;20225;-61
2022/05/21 03:44:36;;;;;;;6.00;3.43;;;15.90;99.90;;;;;;5055293;28;20340;-62
2022/05/21 03:47:04;;;;;;;3.77;3.10;;;15.90;99.90;;;;;;5056242;28;20216;-62
2022/05/21 03:49:30;;;;;;;3.80;3.40;;;15.90;99.90;;;;;;5056015;28;20205;-61
2022/05/21 03:51:59;;;;;;;4.00;3.30;;;15.90;99.90;;;;;;5054351;28;20261;-62
2022/05/21 03:54:25;;;;;;;3.27;3.00;;;15.80;99.90;;;;;;5054515;28;20197;-61
2022/05/21 03:56:53;;;;;;;4.57;3.35;;;15.80;99.90;;;;;;5054343;28;20215;-61
2022/05/21 03:59:20;;;;;;;5.63;3.17;;;15.80;99.90;;;;;;5054088;28;20202;-61
2022/05/21 04:01:47;;;;;;;5.65;3.15;;;15.80;99.90;;;;;;5053731;28;20743;-62
2022/05/21 04:04:13;;;;;;;3.60;3.27;;;15.80;99.90;;;;;;5053935;28;20286;-62
2022/05/21 04:06:40;;;;;;;4.73;3.20;;;15.80;99.90;;;;;;5054121;28;20205;-62
2022/05/21 04:09:09;;;;;;;4.37;3.23;;;15.80;99.90;;;;;;5053942;28;20209;-62
2022/05/21 04:11:36;;;;;;;3.60;3.20;;;15.70;99.90;;;;;;5018322;28;1037648;-61
2022/05/21 04:14:03;;;;;;;3.33;3.07;;;15.70;99.90;;;;;;5054740;28;20228;-61
2022/05/21 04:16:30;;;;;;;4.07;3.30;;;15.60;99.90;;;;;;5055837;28;20248;-62
2022/05/21 04:18:56;;;;;;;4.53;3.07;;;15.70;99.90;;;;;;5054935;28;20246;-61
2022/05/21 04:21:23;;;;;;;6.10;3.97;;;15.70;99.90;;;;;;5054905;28;20229;-61
2022/05/21 04:23:50;;;;;;;3.90;3.37;;;15.80;99.90;;;;;;5055245;28;20321;-61
2022/05/21 04:26:18;;;;;;;7.97;3.37;;;15.80;99.90;;;;;;5054877;28;20216;-62
2022/05/21 04:28:44;;;;;;;4.03;3.30;;;15.80;99.90;;;;;;5054463;28;20201;-60
2022/05/21 04:31:11;;;;;;;4.80;3.90;;;15.90;99.90;;;;;;5054699;28;20226;-60
2022/05/21 04:33:38;;;;;;;4.20;3.53;;;15.90;99.90;;;;;;5054391;28;20267;-62
2022/05/21 04:36:20;;;;;;;5.13;4.10;;;15.90;99.90;;;;;;5054483;28;20248;-62
2022/05/21 04:38:47;;;;;;;4.23;3.83;;;15.90;99.90;;;;;;5053083;28;20216;-61
2022/05/21 04:41:14;;;;;;;6.77;4.27;;;16.00;99.90;;;;;;5054108;28;20229;-61
2022/05/21 04:43:42;;;;;;;7.63;5.27;;;16.10;99.90;;;;;;5054300;28;20263;-61
2022/05/21 04:46:09;;;;;;;5.50;4.23;;;16.20;99.90;;;;;;5054283;28;20213;-61
2022/05/21 04:48:36;;;;;;;4.47;4.00;;;16.20;99.90;;;;;;5054552;28;20751;-62
2022/05/21 04:51:05;;;;;;;7.27;4.83;;;16.30;99.90;;;;;;5054155;28;20225;-61
2022/05/21 04:53:32;;;;;;;6.57;4.93;;;16.40;99.90;;;;;;5054155;28;20206;-61
2022/05/21 04:55:59;;;;;;;5.90;5.00;;;16.50;99.90;;;;;;5054334;28;20584;-61
2022/05/21 04:58:26;;;;;;;6.57;4.90;;;16.60;99.90;;;;;;5054008;28;20206;-61
2022/05/21 05:00:55;;;;;;;6.87;5.00;;;16.70;99.90;;;;;;5053756;28;20226;-62
2022/05/21 05:03:21;;;;;;;5.28;4.65;;;16.70;99.90;;;;;;5054250;28;20212;-61
2022/05/21 05:05:48;;;;;;;9.20;4.80;;;16.90;99.90;;;;;;5054615;28;20229;-62
2022/05/21 05:08:17;;;;;;;7.23;4.13;;;16.90;99.90;;;;;;5054259;28;20216;-61
2022/05/21 05:10:44;;;;;;;5.60;4.68;;;16.90;99.90;;;;;;5076892;22;20237;-58
2022/05/21 05:13:12;;;;;;;9.40;4.95;;;17.00;99.90;;;;;;5033497;28;20202;-60
2022/05/21 05:15:39;;;;;;;4.78;4.25;;;17.30;99.90;;;;;;5033503;28;20224;-58
2022/05/21 05:18:09;;;;;;;6.15;4.57;;;17.70;99.90;;;;;;5033076;28;20692;-57
2022/05/21 05:20:37;;;;;;;5.53;4.05;;;18.30;99.90;;;;;;5032831;28;20210;-57
2022/05/21 05:23:05;;;;;;;3.95;3.55;;;19.00;99.90;;;;;;5032932;28;20574;-57
2022/05/21 05:25:32;;;;;;;6.18;3.60;;;19.70;99.90;;;;;;5032981;28;20234;-59
2022/05/21 05:28:00;;;;;;;6.10;3.20;;;20.20;99.90;;;;;;5033029;28;20206;-57
2022/05/21 05:30:27;;;;;;;5.55;2.92;;;21.30;99.90;;;;;;5032529;28;20210;-58
2022/05/21 05:32:54;;;;;;;5.60;2.80;;;22.80;99.90;;;;;;5032646;28;20226;-58
2022/05/21 05:35:23;;;;;;;2.80;2.35;;;24.40;99.90;;;;;;5032742;28;20203;-58
2022/05/21 05:37:50;;;;;;;2.63;2.38;;;25.70;99.90;;;;;;5032771;28;20206;-59
2022/05/21 05:40:19;;;;;;;3.70;2.90;;;26.60;97.80;;;;;;5032413;28;20207;-59
2022/05/21 05:42:47;;;;;;;2.28;2.08;;;27.30;94.50;;;;;;5032445;28;20241;-59
2022/05/21 05:45:14;;;;;;;4.57;2.40;;;28.20;92.10;;;;;;5032368;28;20222;-57
2022/05/21 05:47:41;;;;;;;2.50;2.22;;;29.00;89.60;;;;;;5032276;28;20214;-57
2022/05/21 05:50:09;;;;;;;3.08;2.30;;;29.20;84.00;;;;;;5032316;28;20256;-58
2022/05/21 05:52:37;;;;;;;4.50;2.20;;;29.10;83.50;;;;;;5032259;28;20238;-57
2022/05/21 05:55:04;;;;;;;3.95;2.50;;;29.70;79.00;;;;;;5032335;28;20260;-57
2022/05/21 05:57:31;;;;;;;4.07;2.00;;;30.30;77.30;;;;;;5032208;28;20210;-56
2022/05/21 05:59:57;;;;;;;5.60;2.38;;;30.70;73.10;;;;;;5032091;28;20206;-58
2022/05/21 06:05:12;;;;;;;2.70;2.10;;;30.80;70.90;;;;;;5032218;28;20232;-58
2022/05/21 06:07:43;;;;;;;4.15;1.80;;;31.20;69.20;;;;;;5031995;28;20723;-57
2022/05/21 06:10:11;;;;;;;2.70;1.70;;;30.80;68.40;;;;;;5032148;28;20206;-58
2022/05/21 06:12:38;;;;;;;2.25;1.40;;;31.00;64.70;;;;;;5031674;28;20238;-58
2022/05/21 06:15:06;;;;;;;2.65;1.75;;;31.30;65.50;;;;;;5032371;28;20340;-58
2022/05/21 06:17:32;;;;;;;2.97;1.90;;;31.30;64.90;;;;;;5032540;28;20289;-57
2022/05/21 06:20:00;;;;;;;2.55;1.90;;;30.70;65.30;;;;;;5031805;28;20618;-58
2022/05/21 06:22:26;;;;;;;1.80;1.50;;;31.30;64.30;;;;;;5031642;28;20237;-57
2022/05/21 06:24:54;;;;;;;2.63;1.90;;;32.10;62.50;;;;;;5031730;28;20588;-58
2022/05/21 06:27:21;;;;;;;1.67;1.58;;;32.50;60.30;;;;;;5031673;28;20210;-58
2022/05/21 06:29:48;;;;;;;3.97;1.60;;;32.80;58.80;;;;;;5031828;28;20214;-60
2022/05/21 06:32:14;;;;;;;4.65;2.53;;;33.30;56.00;;;;;;5031592;28;20510;-59
2022/05/21 06:34:41;;;;;;;2.35;1.70;;;33.00;57.00;;;;;;5032071;28;20214;-59
2022/05/21 06:37:10;;;;;;;3.42;2.00;;;33.30;56.30;;;;;;5031589;28;20261;-58
2022/05/21 06:39:39;;;;;;;2.15;1.60;;;32.80;55.60;;;;;;5031438;28;20678;-59
2022/05/21 06:42:08;;;;;;;2.88;1.80;;;32.50;56.70;;;;;;5031560;28;20648;-59
2022/05/21 06:44:35;;;;;;;3.38;1.98;;;32.20;56.70;;;;;;5031625;28;20277;-58
2022/05/21 06:47:02;;;;;;;2.53;1.92;;;32.20;57.70;;;;;;5031575;28;20210;-59
2022/05/21 06:49:28;;;;;;;2.92;1.95;;;32.00;57.40;;;;;;5031648;28;20206;-59
2022/05/21 06:51:56;;;;;;;4.45;2.17;;;32.50;57.70;;;;;;5031194;28;20647;-59
2022/05/21 06:54:24;;;;;;;2.00;1.73;;;33.90;55.90;;;;;;5031309;28;20688;-59
2022/05/21 06:56:52;;;;;;;3.38;1.88;;;34.90;53.80;;;;;;5031459;28;20305;-57
2022/05/21 06:59:20;;;;;;;3.78;1.85;;;35.00;51.90;;;;;;5031818;28;20209;-57
2022/05/21 07:01:47;;;;;;;2.28;1.42;;;34.60;51.90;;;;;;5031614;28;20230;-57
2022/05/21 07:04:14;;;;;;;2.60;1.80;;;34.60;51.70;;;;;;5035624;28;20206;-58
2022/05/21 07:09:26;;;;;;;5.22;2.97;;;35.40;50.20;;;;;;5035673;28;20616;-59
2022/05/21 07:11:52;;;;;;;4.00;1.50;;;35.00;49.40;;;;;;5035226;28;20238;-58
2022/05/21 07:14:21;;;;;;;3.35;1.45;;;34.80;50.00;;;;;;5035059;28;20584;-58
2022/05/21 07:16:48;;;;;;;3.47;1.75;;;35.00;49.10;;;;;;5035258;28;20349;-57
2022/05/21 07:19:15;;;;;;;3.60;2.00;;;35.10;49.70;;;;;;5034976;28;20206;-57
2022/05/21 07:21:41;;;;;;;3.15;1.50;;;35.10;48.80;;;;;;5034953;28;20237;-57
2022/05/21 07:24:08;;;;;;;4.25;1.55;;;35.00;48.80;;;;;;5035090;28;20207;-58
2022/05/21 07:26:35;;;;;;;2.42;1.40;;;34.40;48.90;;;;;;5034932;28;20276;-57
2022/05/21 07:29:02;;;;;;;3.05;1.70;;;34.10;49.50;;;;;;5034976;28;20581;-58
2022/05/21 07:31:30;;;;;;;3.92;1.70;;;33.90;49.10;;;;;;5034741;28;20253;-58
2022/05/21 07:33:56;;;;;;;3.55;1.48;;;34.10;49.00;;;;;;5034860;28;20904;-59
2022/05/21 07:36:23;;;;;;;1.55;1.17;;;34.20;49.10;;;;;;5034933;28;20205;-55
2022/05/21 07:38:53;;;;;;;4.20;3.08;;;34.80;48.90;;;;;;5034860;28;20210;-58
2022/05/21 07:41:19;;;;;;;7.47;5.55;;;35.30;48.20;;;;;;5034335;28;20706;-57
2022/05/21 07:43:46;;;;;;;9.27;6.95;;;36.10;47.00;;;;;;5034606;28;20634;-56
2022/05/21 07:46:13;;;;;;;2.53;1.17;;;36.80;46.20;;;;;;5034550;28;20222;-57
2022/05/21 07:48:41;;;;;;;3.20;1.45;;;36.70;43.90;;;;;;5034494;28;20210;-56
2022/05/21 07:51:08;;;;;;;3.08;1.45;;;37.00;44.20;;;;;;5034499;28;20230;-56
2022/05/21 07:53:38;;;;;;;4.57;1.80;;;37.10;43.20;;;;;;5034566;28;20202;-56
2022/05/21 07:56:10;;;;;;;2.97;2.22;;;36.90;43.40;;;;;;5034548;28;20630;-54
2022/05/21 07:58:38;;;;;;;3.63;1.70;;;36.90;43.50;;;;;;5037143;28;20264;-56
2022/05/21 08:01:05;;;;;;;8.57;2.72;;;37.40;42.40;;;;;;5036389;28;20222;-57
2022/05/21 08:03:32;;;;;;;9.20;3.45;;;38.00;40.70;;;;;;5034542;28;20630;-56
2022/05/21 08:06:00;;;;;;;4.85;1.58;;;38.10;40.60;;;;;;5034028;28;20226;-56
2022/05/21 08:08:26;;;;;;;7.95;3.53;;;38.30;39.80;;;;;;5034400;28;20206;-55
2022/05/21 08:10:53;;;;;;;8.70;3.47;;;38.00;41.40;;;;;;5033896;28;20245;-56
2022/05/21 08:13:20;;;;;;;7.93;4.03;;;38.20;40.30;;;;;;5034502;28;20217;-56
2022/05/21 08:15:47;;;;;;;4.13;1.33;;;38.50;40.10;;;;;;5034714;28;20263;-56
2022/05/21 08:18:14;;;;;;;3.90;1.30;;;38.80;38.80;;;;;;5034304;28;20206;-57
2022/05/21 08:20:41;;;;;;;5.90;3.00;;;38.40;40.10;;;;;;5034180;28;20213;-55
2022/05/21 08:28:51;;;;;;;1.90;1.23;;;37.40;41.50;;;;;;5034892;28;20708;-55
2022/05/21 08:31:18;;;;;;;3.03;1.23;;;37.20;41.20;;;;;;5033741;28;20245;-60
2022/05/21 08:33:45;;;;;;;3.60;1.38;;;36.30;41.80;;;;;;5034687;28;20622;-63
2022/05/21 08:36:12;;;;;;;3.42;1.42;;;35.90;42.50;;;;;;5033667;28;20202;-56
2022/05/21 08:38:41;;;;;;;2.55;0.80;;;34.90;44.10;;;;;;5033684;28;20577;-56
2022/05/21 08:41:12;;;;;;;5.80;2.05;;;33.20;44.80;;;;;;5033343;28;20237;-55
2022/05/21 08:43:51;;;;;;;3.15;1.05;;;31.70;48.60;;;;;;5034255;28;20214;-56
2022/05/21 08:46:27;;;;;;;3.97;2.35;;;30.60;48.70;;;;;;5034250;28;20226;-58
2022/05/21 08:48:59;;;;;;;4.80;2.30;;;29.30;52.50;;;;;;5033684;28;20625;-55
2022/05/21 08:51:30;;;;;;;3.58;1.52;;;28.20;54.70;;;;;;5034038;28;20237;-55
2022/05/21 08:54:00;;;;;;;3.40;1.20;;;27.40;55.80;;;;;;5033993;28;20210;-56
2022/05/21 08:56:27;;;;;;;3.15;1.52;;;26.40;55.90;;;;;;5034342;28;20202;-55
2022/05/21 08:58:58;;;;;;;3.35;1.55;;;25.70;58.80;;;;;;5034078;28;20321;-56
2022/05/21 09:01:26;;;;;;;1.80;1.38;;;25.30;58.90;;;;;;5033362;28;20313;-58
2022/05/21 09:03:54;;;;;;;2.50;1.00;;;24.60;62.20;;;;;;5034015;28;20210;-56
2022/05/21 09:06:34;;;;;;;2.17;1.13;;;24.30;62.50;;;;;;5033855;28;20280;-57
2022/05/21 09:09:09;;;;;;;2.58;1.40;;;23.80;64.10;;;;;;5033243;28;20666;-56
2022/05/21 09:11:41;;;;;;;3.20;1.20;;;23.50;67.20;;;;;;5032833;28;20333;-55
2022/05/21 09:14:14;;;;;;;2.50;1.17;;;23.10;67.30;;;;;;5033317;28;20237;-54
2022/05/21 09:16:54;;;;;;;2.65;1.13;;;22.90;69.00;;;;;;5033122;28;20649;-56
2022/05/21 09:19:22;;;;;;;5.28;0.90;;;23.10;69.50;;;;;;5033264;28;20293;-55
2022/05/21 09:21:55;;;;;;;2.85;1.00;;;23.10;69.50;;;;;;5032734;28;20232;-55
2022/05/21 09:24:41;;;;;;;2.08;0.77;;;23.20;69.90;;;;;;5032629;28;20238;-56
2022/05/21 09:27:27;;;;;;;3.38;1.65;;;23.10;68.40;;;;;;5033140;28;20241;-55
2022/05/21 09:30:09;;;;;;;2.17;1.27;;;23.00;70.50;;;;;;5032864;28;20202;-56
2022/05/21 09:32:36;;;;;;;1.98;1.30;;;23.10;68.90;;;;;;5032796;28;20226;-55
2022/05/21 09:35:06;;;;;;;6.90;1.75;;;23.30;69.20;;;;;;5033302;28;20214;-54
2022/05/21 09:37:33;;;;;;;1.63;1.15;;;23.40;70.60;;;;;;5033435;28;20291;-55
2022/05/21 09:40:01;;;;;;;5.40;1.05;;;23.50;67.10;;;;;;5032940;28;20604;-55
2022/05/21 09:45:26;;;;;;;1.20;0.77;;;23.30;70.20;;;;;;5032826;28;20224;-55
2022/05/21 09:48:13;;;;;;;2.05;1.00;;;23.30;70.50;;;;;;5032746;28;20206;-55
2022/05/21 09:50:44;;;;;;;2.28;1.30;;;23.30;69.50;;;;;;5033013;28;20206;-54
2022/05/21 09:53:21;;;;;;;2.00;0.73;;;23.40;71.40;;;;;;5032717;28;20210;-54
2022/05/21 09:56:02;;;;;;;1.25;0.90;;;23.30;70.20;;;;;;5032341;28;20240;-56
2022/05/21 09:58:33;;;;;;;1.85;0.77;;;23.20;72.80;;;;;;5033078;28;20214;-54
2022/05/21 10:01:00;;;;;;;2.88;1.20;;;23.40;73.60;;;;;;5032475;28;20284;-54
2022/05/21 10:03:42;;;;;;;2.08;0.90;;;23.50;72.70;;;;;;5032310;28;20674;-54
2022/05/21 10:06:18;;;;;;;1.85;0.80;;;23.20;71.90;;;;;;5032584;28;20230;-63
2022/05/21 10:11:40;;;;;;;2.40;1.00;;;22.90;75.20;;;;;;5031947;28;20316;-58
2022/05/21 10:14:12;;;;;;;2.88;1.20;;;23.10;74.50;;;;;;5032497;28;20206;-59
2022/05/21 10:16:45;;;;;;;5.43;1.92;;;23.30;74.60;;;;;;5032594;28;20206;-58
2022/05/21 10:19:17;;;;;;;4.30;1.65;;;23.40;72.70;;;;;;5032466;28;20206;-59
2022/05/21 10:21:53;;;;;;;5.05;2.47;;;23.20;74.50;;;;;;5031997;28;20226;-59
2022/05/21 10:24:29;;;;;;;4.28;1.98;;;23.10;73.30;;;;;;5032083;28;20206;-57
2022/05/21 10:27:08;;;;;;;25.35;6.75;;;23.10;73.90;;;;;;5032288;28;20222;-60
2022/05/21 10:29:56;;;;;;;59.40;15.48;;;23.20;72.60;;;;;;5032408;28;20301;-57
2022/05/21 10:32:33;;;;;;;4.93;1.15;;;23.10;73.40;;;;;;5032004;28;20230;-58
2022/05/21 10:35:11;;;;;;;11.40;2.35;;;22.90;73.50;;;;;;5032570;28;20206;-57
2022/05/21 10:37:57;;;;;;;16.10;5.07;;;22.60;74.90;;;;;;5031408;28;20210;-58
2022/05/21 10:40:36;;;;;;;33.85;8.40;;;22.70;75.10;;;;;;5031995;28;20206;-58
2022/05/21 10:43:17;;;;;;;1.95;1.02;;;22.90;76.00;;;;;;5031908;28;20583;-58
2022/05/21 10:45:53;;;;;;;3.58;1.40;;;23.00;74.40;;;;;;5031582;28;20264;-57
2022/05/21 10:49:00;;;;;;;4.50;1.77;;;23.00;73.60;;;;;;5031986;28;20296;-58
2022/05/21 10:51:33;;;;;;;2.50;1.30;;;23.10;74.50;;;;;;5006915;28;20234;-57
2022/05/21 10:54:23;;;;;;;8.55;3.10;;;23.20;73.80;;;;;;5031712;28;20214;-58
2022/05/21 10:56:59;;;;;;;5.63;2.35;;;23.30;73.70;;;;;;5032359;28;20229;-57
2022/05/21 10:59:50;;;;;;;9.82;2.95;;;23.40;73.20;;;;;;5032073;28;20206;-58
2022/05/21 11:02:56;;;;;;;12.27;3.70;;;23.40;73.30;;;;;;5031538;28;20226;-59
2022/05/21 11:05:42;;;;;;;8.35;3.35;;;23.60;73.10;;;;;;5031588;28;20324;-60
2022/05/21 11:08:16;;;;;;;3.45;1.70;;;23.70;74.00;;;;;;5032253;28;20210;-61
2022/05/21 11:10:51;;;;;;;2.55;1.15;;;23.90;72.40;;;;;;5031605;28;20577;-58
2022/05/21 11:13:21;;;;;;;8.48;2.83;;;24.10;72.00;;;;;;5046491;23;20279;-59
2022/05/21 11:15:54;;;;;;;1.70;1.00;;;24.20;71.40;;;;;;5031904;28;20194;-60
2022/05/21 11:18:27;;;;;;;4.60;1.90;;;24.10;71.60;;;;;;5032033;28;20213;-60
2022/05/21 11:21:01;;;;;;;4.03;1.60;;;24.20;71.70;;;;;;5031792;28;20248;-59
2022/05/21 11:23:35;;;;;;;4.28;2.05;;;24.20;70.80;;;;;;5031811;28;20226;-59
2022/05/21 11:26:06;;;;;;;3.47;1.08;;;24.40;72.70;;;;;;5031814;28;20230;-60
2022/05/21 11:28:40;;;;;;;4.07;1.50;;;24.40;71.90;;;;;;5032097;28;20206;-59
2022/05/21 11:31:11;;;;;;;2.78;1.15;;;24.30;71.40;;;;;;5031665;28;20213;-59
2022/05/21 11:39:14;;;;;;;4.45;1.30;;;23.90;71.30;;;;;;5031643;28;20205;-59
2022/05/21 11:42:00;;;;;;;2.13;1.10;;;23.80;71.50;;;;;;5031354;28;20234;-60
2022/05/21 11:44:58;;;;;;;5.38;1.60;;;23.80;70.10;;;;;;5031670;28;20543;-59
2022/05/21 11:47:51;;;;;;;4.68;1.92;;;23.80;73.30;;;;;;5031210;28;20662;-59
2022/05/21 11:50:25;;;;;;;3.83;1.05;;;24.00;71.70;;;;;;5034891;28;20693;-59
2022/05/21 11:52:58;;;;;;;4.38;1.90;;;24.20;70.40;;;;;;5034913;28;20313;-60
2022/05/21 11:55:30;;;;;;;3.13;1.00;;;24.20;71.30;;;;;;5035066;28;20742;-58
2022/05/21 11:57:59;;;;;;;5.50;1.67;;;24.30;69.40;;;;;;5034906;28;20689;-60
2022/05/21 12:00:50;;;;;;;6.15;2.13;;;24.20;68.70;;;;;;5034983;28;20572;-60
2022/05/21 12:03:22;;;;;;;7.97;2.88;;;24.40;69.90;;;;;;5034845;28;20238;-60
2022/05/21 12:05:58;;;;;;;3.92;0.90;;;24.40;70.30;;;;;;5034769;28;20226;-60
2022/05/21 12:08:43;;;;;;;1.55;1.00;;;24.50;68.30;;;;;;5034585;28;20216;-60
2022/05/21 12:11:11;;;;;;;5.97;1.42;;;24.60;67.60;;;;;;5035007;28;20233;-60
2022/05/21 12:14:01;;;;;;;2.70;1.10;;;24.70;68.30;;;;;;5035253;28;20300;-62
2022/05/21 12:16:45;;;;;;;3.33;1.13;;;24.80;66.70;;;;;;5035791;28;20209;-62
2022/05/21 12:20:01;;;;;;;3.08;0.93;;;24.80;68.30;;;;;;5036236;28;20207;-60
2022/05/21 12:22:44;;;;;;;2.72;0.70;;;24.70;68.30;;;;;;5037012;28;20658;-61
2022/05/21 12:25:32;;;;;;;5.93;2.10;;;24.80;68.00;;;;;;5036795;28;20216;-62
2022/05/21 12:28:03;;;;;;;7.63;2.00;;;24.90;68.40;;;;;;5035897;28;20602;-60
2022/05/21 12:30:30;;;;;;;3.22;1.42;;;24.80;66.90;;;;;;5035112;28;20215;-58
2022/05/21 12:32:58;;;;;;;2.15;1.05;;;24.50;68.20;;;;;;5033965;28;20230;-63
2022/05/21 12:35:44;;;;;;;3.40;1.25;;;24.50;70.00;;;;;;5034866;28;20217;-62
2022/05/21 12:38:25;;;;;;;5.18;1.67;;;24.60;68.80;;;;;;5034342;28;20242;-64
2022/05/21 12:40:59;;;;;;;2.55;1.23;;;24.50;68.10;;;;;;5034118;28;20256;-62
2022/05/21 12:43:26;;;;;;;3.08;1.15;;;24.40;68.00;;;;;;5035048;28;20234;-63
2022/05/21 12:45:54;;;;;;;4.72;1.48;;;24.50;65.70;;;;;;5034215;28;20260;-62
2022/05/21 12:48:24;;;;;;;3.85;1.48;;;24.40;65.90;;;;;;5034407;28;20272;-63
2022/05/21 12:50:55;;;;;;;4.90;1.70;;;24.40;68.20;;;;;;5034726;28;20207;-59
2022/05/21 12:53:27;;;;;;;1.92;1.23;;;24.20;67.10;;;;;;5035363;28;20317;-62
2022/05/21 12:56:03;;;;;;;2.83;1.58;;;24.00;68.40;;;;;;5035038;28;20202;-62
2022/05/21 12:58:31;;;;;;;4.75;1.42;;;23.90;68.70;;;;;;5035410;28;20724;-63
2022/05/21 13:01:00;;;;;;;3.75;1.40;;;23.90;67.50;;;;;;5033440;28;20210;-62
2022/05/21 13:03:32;;;;;;;1.88;1.13;;;24.00;69.10;;;;;;5034795;28;20234;-62
2022/05/21 13:06:01;;;;;;;2.33;1.30;;;24.10;67.70;;;;;;5034174;28;20731;-62
2022/05/21 13:08:30;;;;;;;5.00;1.25;;;24.00;68.00;;;;;;5033961;28;20214;-62
2022/05/21 13:11:01;;;;;;;1.52;0.93;;;24.10;67.70;;;;;;5034454;28;20214;-62
2022/05/21 13:13:32;;;;;;;2.53;1.20;;;24.10;67.00;;;;;;5034095;28;20256;-62
2022/05/21 13:16:01;;;;;;;3.47;1.50;;;24.10;67.70;;;;;;5033847;28;20593;-62
2022/05/21 13:18:46;;;;;;;4.43;1.27;;;24.10;69.80;;;;;;5034239;28;20665;-63
2022/05/21 13:21:26;;;;;;;3.95;1.27;;;24.00;67.60;;;;;;5033218;28;20256;-62
2022/05/21 13:24:03;;;;;;;1.42;0.80;;;23.90;68.80;;;;;;5033814;28;20268;-61
2022/05/21 13:26:33;;;;;;;3.28;1.60;;;24.10;67.80;;;;;;5033817;28;20225;-60
2022/05/21 13:29:25;;;;;;;2.20;0.98;;;24.20;70.00;;;;;;5033787;28;20210;-59
2022/05/21 13:31:53;;;;;;;1.98;0.90;;;24.40;67.30;;;;;;5033692;28;20249;-61
2022/05/21 13:34:23;;;;;;;2.45;1.10;;;24.30;66.80;;;;;;5034087;28;20206;-58
2022/05/21 13:36:54;;;;;;;2.80;1.13;;;24.30;66.90;;;;;;5033897;28;20230;-60